sensor_id;sensor_type;location;lat;lon;timestamp;temperature;humidity
44695;DHT22;32845;59.422;17.930;2023-04-09T00:04:28;-0.30;99.90
44695;DHT22;32845;59.422;17.930;2023-04-09T00:08:59;-0.20;99.90
44695;DHT22;32845;59.422;17.930;2023-04-09T00:13:30;-0.30;99.90
44695;DHT22;32845;59.422;17.930;2023-04-09T00:18:01;-0.30;99.90
44695;DHT22;32845;59.422;17.930;2023-04-09T00:22:32;-0.40;99.90
44695;DHT22;32845;59.422;17.930;2023-04-09T00:27:03;-0.40;99.90
44695;DHT22;32845;59.422;17.930;2023-04-09T00:31:33;-0.40;99.90
44695;DHT22;32845;59.422;17.930;2023-04-09T00:36:04;-0.40;99.90
44695;DHT22;32845;59.422;17.930;2023-04-09T00:40:35;-0.40;99.90
44695;DHT22;32845;59.422;17.930;2023-04-09T00:45:06;-0.40;99.90
44695;DHT22;32845;59.422;17.930;2023-04-09T00:49:37;-0.40;99.90
44695;DHT22;32845;59.422;17.930;2023-04-09T00:54:08;-0.40;99.90
44695;DHT22;32845;59.422;17.930;2023-04-09T00:58:42;-0.40;99.90
44695;DHT22;32845;59.422;17.930;2023-04-09T01:03:13;-0.50;99.90
44695;DHT22;32845;59.422;17.930;2023-04-09T01:12:59;-0.60;99.90
44695;DHT22;32845;59.422;17.930;2023-04-09T01:17:46;-0.60;99.90
44695;DHT22;32845;59.422;17.930;2023-04-09T01:22:57;-0.70;99.90
44695;DHT22;32845;59.422;17.930;2023-04-09T01:27:41;-0.70;99.90
44695;DHT22;32845;59.422;17.930;2023-04-09T01:32:15;-0.70;99.90
44695;DHT22;32845;59.422;17.930;2023-04-09T01:36:58;-0.80;99.90
44695;DHT22;32845;59.422;17.930;2023-04-09T01:41:31;-0.90;99.90
44695;DHT22;32845;59.422;17.930;2023-04-09T01:46:03;-0.90;99.90
44695;DHT22;32845;59.422;17.930;2023-04-09T01:50:34;-0.90;99.90
44695;DHT22;32845;59.422;17.930;2023-04-09T01:55:06;-0.90;99.90
44695;DHT22;32845;59.422;17.930;2023-04-09T01:59:37;-1.00;99.90
44695;DHT22;32845;59.422;17.930;2023-04-09T02:04:38;-0.90;99.90
44695;DHT22;32845;59.422;17.930;2023-04-09T02:09:07;-0.80;99.90
44695;DHT22;32845;59.422;17.930;2023-04-09T02:13:39;-0.80;99.90
44695;DHT22;32845;59.422;17.930;2023-04-09T02:18:24;-0.90;99.90
44695;DHT22;32845;59.422;17.930;2023-04-09T02:22:56;-1.00;99.90
44695;DHT22;32845;59.422;17.930;2023-04-09T02:27:27;-1.10;99.90
44695;DHT22;32845;59.422;17.930;2023-04-09T02:31:57;-1.10;99.90
44695;DHT22;32845;59.422;17.930;2023-04-09T02:36:28;-1.10;99.90
44695;DHT22;32845;59.422;17.930;2023-04-09T02:40:59;-1.20;99.90
44695;DHT22;32845;59.422;17.930;2023-04-09T02:45:30;-1.20;99.90
44695;DHT22;32845;59.422;17.930;2023-04-09T02:50:00;-1.30;99.90
44695;DHT22;32845;59.422;17.930;2023-04-09T02:54:31;-1.30;99.90
44695;DHT22;32845;59.422;17.930;2023-04-09T02:59:02;-1.30;99.90
44695;DHT22;32845;59.422;17.930;2023-04-09T03:03:32;-1.30;99.90
44695;DHT22;32845;59.422;17.930;2023-04-09T03:08:03;-1.10;99.90
44695;DHT22;32845;59.422;17.930;2023-04-09T03:12:34;-0.90;99.90
44695;DHT22;32845;59.422;17.930;2023-04-09T03:17:05;-0.80;99.90
44695;DHT22;32845;59.422;17.930;2023-04-09T03:21:40;-0.70;99.90
44695;DHT22;32845;59.422;17.930;2023-04-09T03:26:11;-0.60;99.90
44695;DHT22;32845;59.422;17.930;2023-04-09T03:30:42;-0.50;99.90
44695;DHT22;32845;59.422;17.930;2023-04-09T03:35:13;-0.40;99.90
44695;DHT22;32845;59.422;17.930;2023-04-09T03:39:43;-0.40;99.90
44695;DHT22;32845;59.422;17.930;2023-04-09T03:44:14;-0.40;99.90
44695;DHT22;32845;59.422;17.930;2023-04-09T03:48:50;-0.40;99.90
44695;DHT22;32845;59.422;17.930;2023-04-09T03:53:20;-0.20;99.90
44695;DHT22;32845;59.422;17.930;2023-04-09T03:57:51;-0.10;99.90
44695;DHT22;32845;59.422;17.930;2023-04-09T04:02:24;0.10;99.90
44695;DHT22;32845;59.422;17.930;2023-04-09T04:06:56;0.20;99.90
44695;DHT22;32845;59.422;17.930;2023-04-09T04:11:27;0.30;99.90
44695;DHT22;32845;59.422;17.930;2023-04-09T04:15:57;0.50;99.90
44695;DHT22;32845;59.422;17.930;2023-04-09T04:20:28;0.60;99.90
44695;DHT22;32845;59.422;17.930;2023-04-09T04:24:59;0.70;99.90
44695;DHT22;32845;59.422;17.930;2023-04-09T04:29:29;0.70;99.90
44695;DHT22;32845;59.422;17.930;2023-04-09T04:34:00;0.80;99.90
44695;DHT22;32845;59.422;17.930;2023-04-09T04:38:31;0.90;99.90
44695;DHT22;32845;59.422;17.930;2023-04-09T04:43:02;0.90;99.90
44695;DHT22;32845;59.422;17.930;2023-04-09T04:47:32;1.00;99.90
44695;DHT22;32845;59.422;17.930;2023-04-09T04:52:04;1.00;99.90
44695;DHT22;32845;59.422;17.930;2023-04-09T04:56:35;1.00;99.90
44695;DHT22;32845;59.422;17.930;2023-04-09T05:01:05;1.10;99.90
44695;DHT22;32845;59.422;17.930;2023-04-09T05:05:36;1.20;99.90
44695;DHT22;32845;59.422;17.930;2023-04-09T05:10:07;1.20;99.90
44695;DHT22;32845;59.422;17.930;2023-04-09T05:14:38;1.30;99.90
44695;DHT22;32845;59.422;17.930;2023-04-09T05:19:09;1.30;99.90
44695;DHT22;32845;59.422;17.930;2023-04-09T05:23:39;1.30;99.90
44695;DHT22;32845;59.422;17.930;2023-04-09T05:28:10;1.40;99.90
44695;DHT22;32845;59.422;17.930;2023-04-09T05:32:41;1.50;99.90
44695;DHT22;32845;59.422;17.930;2023-04-09T05:37:12;1.50;99.90
44695;DHT22;32845;59.422;17.930;2023-04-09T05:41:43;1.70;99.90
44695;DHT22;32845;59.422;17.930;2023-04-09T05:46:14;1.70;99.90
44695;DHT22;32845;59.422;17.930;2023-04-09T05:50:49;1.80;99.90
44695;DHT22;32845;59.422;17.930;2023-04-09T05:55:21;2.00;99.90
44695;DHT22;32845;59.422;17.930;2023-04-09T05:59:52;2.10;99.90
44695;DHT22;32845;59.422;17.930;2023-04-09T06:04:23;2.20;99.90
44695;DHT22;32845;59.422;17.930;2023-04-09T06:08:53;2.40;99.90
44695;DHT22;32845;59.422;17.930;2023-04-09T06:13:24;2.50;99.90
44695;DHT22;32845;59.422;17.930;2023-04-09T06:17:55;2.70;99.90
44695;DHT22;32845;59.422;17.930;2023-04-09T06:22:26;2.80;99.90
44695;DHT22;32845;59.422;17.930;2023-04-09T06:26:57;2.90;99.90
44695;DHT22;32845;59.422;17.930;2023-04-09T06:31:27;3.00;99.90
44695;DHT22;32845;59.422;17.930;2023-04-09T06:35:58;3.10;99.90
44695;DHT22;32845;59.422;17.930;2023-04-09T06:40:29;3.20;99.90
44695;DHT22;32845;59.422;17.930;2023-04-09T06:45:00;3.30;99.90
44695;DHT22;32845;59.422;17.930;2023-04-09T06:49:30;3.40;99.90
44695;DHT22;32845;59.422;17.930;2023-04-09T06:54:01;3.40;99.90
44695;DHT22;32845;59.422;17.930;2023-04-09T06:58:32;3.60;99.90
44695;DHT22;32845;59.422;17.930;2023-04-09T07:03:03;3.70;99.90
44695;DHT22;32845;59.422;17.930;2023-04-09T07:07:34;3.80;99.90
44695;DHT22;32845;59.422;17.930;2023-04-09T07:12:05;3.90;99.90
44695;DHT22;32845;59.422;17.930;2023-04-09T07:16:36;4.10;99.90
44695;DHT22;32845;59.422;17.930;2023-04-09T07:21:06;4.30;99.90
44695;DHT22;32845;59.422;17.930;2023-04-09T07:25:37;4.50;99.90
44695;DHT22;32845;59.422;17.930;2023-04-09T07:30:08;4.70;99.90
44695;DHT22;32845;59.422;17.930;2023-04-09T07:34:40;4.90;99.90
44695;DHT22;32845;59.422;17.930;2023-04-09T07:39:10;5.10;99.90
44695;DHT22;32845;59.422;17.930;2023-04-09T07:43:41;5.20;99.90
44695;DHT22;32845;59.422;17.930;2023-04-09T07:48:12;5.30;99.90
44695;DHT22;32845;59.422;17.930;2023-04-09T07:52:43;5.50;99.90
44695;DHT22;32845;59.422;17.930;2023-04-09T07:57:13;5.80;99.90
44695;DHT22;32845;59.422;17.930;2023-04-09T08:01:44;6.00;99.90
44695;DHT22;32845;59.422;17.930;2023-04-09T08:06:15;6.10;99.90
44695;DHT22;32845;59.422;17.930;2023-04-09T08:10:46;6.30;99.90
44695;DHT22;32845;59.422;17.930;2023-04-09T08:15:17;6.50;99.90
44695;DHT22;32845;59.422;17.930;2023-04-09T08:19:48;6.70;99.90
44695;DHT22;32845;59.422;17.930;2023-04-09T08:24:19;7.00;99.90
44695;DHT22;32845;59.422;17.930;2023-04-09T08:28:49;7.20;99.00
44695;DHT22;32845;59.422;17.930;2023-04-09T08:33:21;7.40;98.80
44695;DHT22;32845;59.422;17.930;2023-04-09T08:37:52;7.60;98.60
44695;DHT22;32845;59.422;17.930;2023-04-09T08:42:24;7.80;98.20
44695;DHT22;32845;59.422;17.930;2023-04-09T08:46:55;8.00;98.20
44695;DHT22;32845;59.422;17.930;2023-04-09T08:51:26;8.20;97.80
44695;DHT22;32845;59.422;17.930;2023-04-09T08:55:58;8.30;97.60
44695;DHT22;32845;59.422;17.930;2023-04-09T09:00:29;8.40;97.50
44695;DHT22;32845;59.422;17.930;2023-04-09T09:05:00;8.60;97.60
44695;DHT22;32845;59.422;17.930;2023-04-09T09:09:31;8.80;97.30
44695;DHT22;32845;59.422;17.930;2023-04-09T09:14:09;9.10;97.20
44695;DHT22;32845;59.422;17.930;2023-04-09T09:18:41;9.30;96.70
44695;DHT22;32845;59.422;17.930;2023-04-09T09:23:12;9.40;96.60
44695;DHT22;32845;59.422;17.930;2023-04-09T09:27:43;9.60;95.40
44695;DHT22;32845;59.422;17.930;2023-04-09T09:32:14;9.60;94.00
44695;DHT22;32845;59.422;17.930;2023-04-09T09:36:45;9.80;93.70
44695;DHT22;32845;59.422;17.930;2023-04-09T09:41:16;10.00;93.40
44695;DHT22;32845;59.422;17.930;2023-04-09T09:45:48;10.10;92.80
44695;DHT22;32845;59.422;17.930;2023-04-09T09:50:22;10.30;91.50
44695;DHT22;32845;59.422;17.930;2023-04-09T09:54:55;10.60;91.40
44695;DHT22;32845;59.422;17.930;2023-04-09T09:59:31;10.90;87.90
44695;DHT22;32845;59.422;17.930;2023-04-09T10:04:05;11.20;90.30
44695;DHT22;32845;59.422;17.930;2023-04-09T10:08:37;11.60;89.00
44695;DHT22;32845;59.422;17.930;2023-04-09T10:13:22;11.80;87.20
44695;DHT22;32845;59.422;17.930;2023-04-09T10:17:54;12.00;84.40
44695;DHT22;32845;59.422;17.930;2023-04-09T10:22:28;12.20;87.20
44695;DHT22;32845;59.422;17.930;2023-04-09T10:27:14;12.30;83.20
44695;DHT22;32845;59.422;17.930;2023-04-09T10:32:07;12.30;84.80
44695;DHT22;32845;59.422;17.930;2023-04-09T10:36:37;12.30;83.00
44695;DHT22;32845;59.422;17.930;2023-04-09T10:41:21;12.70;84.70
44695;DHT22;32845;59.422;17.930;2023-04-09T10:45:52;12.90;80.00
44695;DHT22;32845;59.422;17.930;2023-04-09T10:50:27;13.30;79.50
44695;DHT22;32845;59.422;17.930;2023-04-09T10:55:03;13.70;78.10
44695;DHT22;32845;59.422;17.930;2023-04-09T10:59:39;14.20;73.00
44695;DHT22;32845;59.422;17.930;2023-04-09T11:04:15;14.80;75.20
44695;DHT22;32845;59.422;17.930;2023-04-09T11:08:49;15.40;73.00
44695;DHT22;32845;59.422;17.930;2023-04-09T11:13:20;15.90;66.80
44695;DHT22;32845;59.422;17.930;2023-04-09T11:17:51;16.40;68.70
44695;DHT22;32845;59.422;17.930;2023-04-09T11:22:22;17.80;71.20
44695;DHT22;32845;59.422;17.930;2023-04-09T11:26:54;19.80;63.20
44695;DHT22;32845;59.422;17.930;2023-04-09T11:31:28;19.20;56.70
44695;DHT22;32845;59.422;17.930;2023-04-09T11:35:59;17.60;60.10
44695;DHT22;32845;59.422;17.930;2023-04-09T11:40:31;16.30;61.80
44695;DHT22;32845;59.422;17.930;2023-04-09T11:45:02;15.80;66.40
44695;DHT22;32845;59.422;17.930;2023-04-09T11:49:33;17.70;66.80
44695;DHT22;32845;59.422;17.930;2023-04-09T11:54:05;20.00;56.50
44695;DHT22;32845;59.422;17.930;2023-04-09T11:58:36;21.90;48.70
44695;DHT22;32845;59.422;17.930;2023-04-09T12:03:08;23.20;52.50
44695;DHT22;32845;59.422;17.930;2023-04-09T12:07:39;22.10;52.40
44695;DHT22;32845;59.422;17.930;2023-04-09T12:12:10;19.80;54.30
44695;DHT22;32845;59.422;17.930;2023-04-09T12:16:41;17.90;56.90
44695;DHT22;32845;59.422;17.930;2023-04-09T12:21:15;16.50;59.40
44695;DHT22;32845;59.422;17.930;2023-04-09T12:25:46;15.60;60.50
44695;DHT22;32845;59.422;17.930;2023-04-09T12:30:17;14.90;62.80
44695;DHT22;32845;59.422;17.930;2023-04-09T12:34:48;15.90;66.40
44695;DHT22;32845;59.422;17.930;2023-04-09T12:39:19;17.60;63.30
44695;DHT22;32845;59.422;17.930;2023-04-09T12:43:50;19.10;58.90
44695;DHT22;32845;59.422;17.930;2023-04-09T12:48:21;19.40;56.60
44695;DHT22;32845;59.422;17.930;2023-04-09T12:52:51;19.60;56.90
44695;DHT22;32845;59.422;17.930;2023-04-09T12:57:22;19.70;53.90
44695;DHT22;32845;59.422;17.930;2023-04-09T13:01:53;19.60;52.40
44695;DHT22;32845;59.422;17.930;2023-04-09T13:06:23;19.50;54.80
44695;DHT22;32845;59.422;17.930;2023-04-09T13:10:54;18.90;55.10
44695;DHT22;32845;59.422;17.930;2023-04-09T13:15:25;17.90;56.30
44695;DHT22;32845;59.422;17.930;2023-04-09T13:19:56;16.90;57.30
44695;DHT22;32845;59.422;17.930;2023-04-09T13:24:27;16.00;58.10
44695;DHT22;32845;59.422;17.930;2023-04-09T13:28:58;15.40;60.00
44695;DHT22;32845;59.422;17.930;2023-04-09T13:33:29;15.30;62.70
44695;DHT22;32845;59.422;17.930;2023-04-09T13:37:59;15.50;60.90
44695;DHT22;32845;59.422;17.930;2023-04-09T13:42:30;15.80;62.70
44695;DHT22;32845;59.422;17.930;2023-04-09T13:47:01;16.50;60.00
44695;DHT22;32845;59.422;17.930;2023-04-09T13:51:32;17.20;59.20
44695;DHT22;32845;59.422;17.930;2023-04-09T13:56:03;17.20;58.30
44695;DHT22;32845;59.422;17.930;2023-04-09T14:00:35;17.50;59.20
44695;DHT22;32845;59.422;17.930;2023-04-09T14:05:06;17.50;54.30
44695;DHT22;32845;59.422;17.930;2023-04-09T14:09:37;17.60;58.20
44695;DHT22;32845;59.422;17.930;2023-04-09T14:14:08;17.10;56.50
44695;DHT22;32845;59.422;17.930;2023-04-09T14:18:39;16.40;58.00
44695;DHT22;32845;59.422;17.930;2023-04-09T14:23:10;15.80;58.80
44695;DHT22;32845;59.422;17.930;2023-04-09T14:27:41;15.30;59.70
44695;DHT22;32845;59.422;17.930;2023-04-09T14:32:12;15.00;61.00
44695;DHT22;32845;59.422;17.930;2023-04-09T14:36:42;14.50;61.50
44695;DHT22;32845;59.422;17.930;2023-04-09T14:41:13;14.40;62.30
44695;DHT22;32845;59.422;17.930;2023-04-09T14:45:44;14.40;62.50
44695;DHT22;32845;59.422;17.930;2023-04-09T14:50:14;14.40;62.80
44695;DHT22;32845;59.422;17.930;2023-04-09T14:54:45;14.40;60.10
44695;DHT22;32845;59.422;17.930;2023-04-09T14:59:16;14.30;61.10
44695;DHT22;32845;59.422;17.930;2023-04-09T15:03:47;14.20;61.20
44695;DHT22;32845;59.422;17.930;2023-04-09T15:08:17;14.00;59.40
44695;DHT22;32845;59.422;17.930;2023-04-09T15:12:48;13.80;60.70
44695;DHT22;32845;59.422;17.930;2023-04-09T15:17:19;13.70;61.20
44695;DHT22;32845;59.422;17.930;2023-04-09T15:21:50;13.60;62.60
44695;DHT22;32845;59.422;17.930;2023-04-09T15:26:20;13.50;62.60
44695;DHT22;32845;59.422;17.930;2023-04-09T15:30:53;13.50;62.10
44695;DHT22;32845;59.422;17.930;2023-04-09T15:35:24;13.40;61.80
44695;DHT22;32845;59.422;17.930;2023-04-09T15:39:58;13.40;62.10
44695;DHT22;32845;59.422;17.930;2023-04-09T15:44:29;13.50;65.30
44695;DHT22;32845;59.422;17.930;2023-04-09T15:49:00;13.50;63.40
44695;DHT22;32845;59.422;17.930;2023-04-09T15:53:30;13.30;64.80
44695;DHT22;32845;59.422;17.930;2023-04-09T15:58:01;13.20;65.40
44695;DHT22;32845;59.422;17.930;2023-04-09T16:02:32;12.90;66.00
44695;DHT22;32845;59.422;17.930;2023-04-09T16:07:02;12.70;68.70
44695;DHT22;32845;59.422;17.930;2023-04-09T16:11:33;12.40;70.10
44695;DHT22;32845;59.422;17.930;2023-04-09T16:16:05;12.20;71.70
44695;DHT22;32845;59.422;17.930;2023-04-09T16:20:36;12.10;72.60
44695;DHT22;32845;59.422;17.930;2023-04-09T16:25:07;12.00;73.00
44695;DHT22;32845;59.422;17.930;2023-04-09T16:29:38;11.60;74.30
44695;DHT22;32845;59.422;17.930;2023-04-09T16:34:09;11.40;74.70
44695;DHT22;32845;59.422;17.930;2023-04-09T16:38:39;11.00;77.20
44695;DHT22;32845;59.422;17.930;2023-04-09T16:43:10;10.70;77.40
44695;DHT22;32845;59.422;17.930;2023-04-09T16:47:41;10.40;79.80
44695;DHT22;32845;59.422;17.930;2023-04-09T16:52:12;10.20;80.70
44695;DHT22;32845;59.422;17.930;2023-04-09T16:56:43;10.00;82.10
44695;DHT22;32845;59.422;17.930;2023-04-09T17:01:13;9.70;83.80
44695;DHT22;32845;59.422;17.930;2023-04-09T17:05:45;9.50;85.00
44695;DHT22;32845;59.422;17.930;2023-04-09T17:10:19;9.40;85.50
44695;DHT22;32845;59.422;17.930;2023-04-09T17:14:50;9.20;86.30
44695;DHT22;32845;59.422;17.930;2023-04-09T17:19:21;9.20;87.20
44695;DHT22;32845;59.422;17.930;2023-04-09T17:23:51;9.00;87.10
44695;DHT22;32845;59.422;17.930;2023-04-09T17:28:22;8.80;87.10
44695;DHT22;32845;59.422;17.930;2023-04-09T17:32:53;8.70;88.40
44695;DHT22;32845;59.422;17.930;2023-04-09T17:37:23;8.50;87.50
44695;DHT22;32845;59.422;17.930;2023-04-09T17:41:54;8.40;87.70
44695;DHT22;32845;59.422;17.930;2023-04-09T17:46:29;8.20;87.00
44695;DHT22;32845;59.422;17.930;2023-04-09T17:51:00;8.00;87.30
44695;DHT22;32845;59.422;17.930;2023-04-09T17:55:31;7.80;89.20
44695;DHT22;32845;59.422;17.930;2023-04-09T18:00:02;7.60;89.10
44695;DHT22;32845;59.422;17.930;2023-04-09T18:04:33;7.40;90.30
44695;DHT22;32845;59.422;17.930;2023-04-09T18:09:04;7.10;90.50
44695;DHT22;32845;59.422;17.930;2023-04-09T18:13:35;6.90;91.00
44695;DHT22;32845;59.422;17.930;2023-04-09T18:18:06;6.70;91.40
44695;DHT22;32845;59.422;17.930;2023-04-09T18:22:36;6.50;91.70
44695;DHT22;32845;59.422;17.930;2023-04-09T18:27:07;6.30;92.10
44695;DHT22;32845;59.422;17.930;2023-04-09T18:31:38;6.20;92.50
44695;DHT22;32845;59.422;17.930;2023-04-09T18:36:09;6.00;93.00
44695;DHT22;32845;59.422;17.930;2023-04-09T18:40:43;5.80;93.10
44695;DHT22;32845;59.422;17.930;2023-04-09T18:45:13;5.60;93.80
44695;DHT22;32845;59.422;17.930;2023-04-09T18:49:44;5.40;94.10
44695;DHT22;32845;59.422;17.930;2023-04-09T18:54:15;5.30;94.60
44695;DHT22;32845;59.422;17.930;2023-04-09T18:58:47;5.10;95.50
44695;DHT22;32845;59.422;17.930;2023-04-09T19:03:18;5.00;96.30
44695;DHT22;32845;59.422;17.930;2023-04-09T19:07:48;4.90;96.90
44695;DHT22;32845;59.422;17.930;2023-04-09T19:12:19;4.80;97.50
44695;DHT22;32845;59.422;17.930;2023-04-09T19:16:50;4.60;98.20
44695;DHT22;32845;59.422;17.930;2023-04-09T19:21:21;4.50;98.70
44695;DHT22;32845;59.422;17.930;2023-04-09T19:25:54;4.40;99.60
44695;DHT22;32845;59.422;17.930;2023-04-09T19:30:25;4.20;99.90
44695;DHT22;32845;59.422;17.930;2023-04-09T19:34:56;4.10;99.90
44695;DHT22;32845;59.422;17.930;2023-04-09T19:39:27;4.00;99.90
44695;DHT22;32845;59.422;17.930;2023-04-09T19:43:57;3.90;99.90
44695;DHT22;32845;59.422;17.930;2023-04-09T19:48:28;3.70;99.90
44695;DHT22;32845;59.422;17.930;2023-04-09T19:52:58;3.70;99.90
44695;DHT22;32845;59.422;17.930;2023-04-09T19:57:29;3.50;99.90
44695;DHT22;32845;59.422;17.930;2023-04-09T20:02:01;3.40;99.90
44695;DHT22;32845;59.422;17.930;2023-04-09T20:06:32;3.30;99.90
44695;DHT22;32845;59.422;17.930;2023-04-09T20:11:02;3.20;99.90
44695;DHT22;32845;59.422;17.930;2023-04-09T20:15:33;3.00;99.90
44695;DHT22;32845;59.422;17.930;2023-04-09T20:20:04;2.90;99.90
44695;DHT22;32845;59.422;17.930;2023-04-09T20:24:35;2.70;99.90
44695;DHT22;32845;59.422;17.930;2023-04-09T20:29:06;2.70;99.90
44695;DHT22;32845;59.422;17.930;2023-04-09T20:33:37;2.60;99.90
44695;DHT22;32845;59.422;17.930;2023-04-09T20:38:07;2.50;99.90
44695;DHT22;32845;59.422;17.930;2023-04-09T20:42:39;2.40;99.90
44695;DHT22;32845;59.422;17.930;2023-04-09T20:47:10;2.30;99.90
44695;DHT22;32845;59.422;17.930;2023-04-09T20:51:41;2.20;99.90
44695;DHT22;32845;59.422;17.930;2023-04-09T20:56:12;2.10;99.90
44695;DHT22;32845;59.422;17.930;2023-04-09T21:00:42;2.00;99.90
44695;DHT22;32845;59.422;17.930;2023-04-09T21:05:13;2.00;99.90
44695;DHT22;32845;59.422;17.930;2023-04-09T21:09:44;1.90;99.90
44695;DHT22;32845;59.422;17.930;2023-04-09T21:14:14;1.80;99.90
44695;DHT22;32845;59.422;17.930;2023-04-09T21:18:45;1.70;99.90
44695;DHT22;32845;59.422;17.930;2023-04-09T21:23:16;1.60;99.90
44695;DHT22;32845;59.422;17.930;2023-04-09T21:27:46;1.50;99.90
44695;DHT22;32845;59.422;17.930;2023-04-09T21:32:17;1.40;99.90
44695;DHT22;32845;59.422;17.930;2023-04-09T21:36:48;1.30;99.90
44695;DHT22;32845;59.422;17.930;2023-04-09T21:41:18;1.30;99.90
44695;DHT22;32845;59.422;17.930;2023-04-09T21:45:50;1.30;99.90
44695;DHT22;32845;59.422;17.930;2023-04-09T21:50:21;1.20;99.90
44695;DHT22;32845;59.422;17.930;2023-04-09T21:54:52;1.10;99.90
44695;DHT22;32845;59.422;17.930;2023-04-09T21:59:23;1.10;99.90
44695;DHT22;32845;59.422;17.930;2023-04-09T22:03:53;1.00;99.90
44695;DHT22;32845;59.422;17.930;2023-04-09T22:08:24;0.90;99.90
44695;DHT22;32845;59.422;17.930;2023-04-09T22:12:55;0.80;99.90
44695;DHT22;32845;59.422;17.930;2023-04-09T22:17:25;0.80;99.90
44695;DHT22;32845;59.422;17.930;2023-04-09T22:21:57;0.70;99.90
44695;DHT22;32845;59.422;17.930;2023-04-09T22:26:27;0.70;99.90
44695;DHT22;32845;59.422;17.930;2023-04-09T22:30:58;0.60;99.90
44695;DHT22;32845;59.422;17.930;2023-04-09T22:35:30;0.60;99.90
44695;DHT22;32845;59.422;17.930;2023-04-09T22:40:01;0.50;99.90
44695;DHT22;32845;59.422;17.930;2023-04-09T22:44:32;0.40;99.90
44695;DHT22;32845;59.422;17.930;2023-04-09T22:49:02;0.40;99.90
44695;DHT22;32845;59.422;17.930;2023-04-09T22:53:33;0.30;99.90
44695;DHT22;32845;59.422;17.930;2023-04-09T22:58:04;0.30;99.90
44695;DHT22;32845;59.422;17.930;2023-04-09T23:02:34;0.20;99.90
44695;DHT22;32845;59.422;17.930;2023-04-09T23:07:06;0.20;99.90
44695;DHT22;32845;59.422;17.930;2023-04-09T23:11:37;0.10;99.90
44695;DHT22;32845;59.422;17.930;2023-04-09T23:16:09;0.10;99.90
44695;DHT22;32845;59.422;17.930;2023-04-09T23:20:40;0.10;99.90
44695;DHT22;32845;59.422;17.930;2023-04-09T23:25:10;0.00;99.90
44695;DHT22;32845;59.422;17.930;2023-04-09T23:29:41;-0.10;99.90
44695;DHT22;32845;59.422;17.930;2023-04-09T23:34:12;-0.10;99.90
44695;DHT22;32845;59.422;17.930;2023-04-09T23:38:42;-0.10;99.90
44695;DHT22;32845;59.422;17.930;2023-04-09T23:43:16;-0.20;99.90
44695;DHT22;32845;59.422;17.930;2023-04-09T23:47:46;-0.30;99.90
44695;DHT22;32845;59.422;17.930;2023-04-09T23:52:17;-0.40;99.90
44695;DHT22;32845;59.422;17.930;2023-04-09T23:56:48;-0.40;99.90
